Time;durP1;ratioP1;P1;durP2;ratioP2;P2;SDS_P1;SDS_P2;PMS_P1;PMS_P2;Temp;Humidity;BMP_temperature;BMP_pressure;BME280_temperature;BME280_humidity;BME280_pressure;Samples;Min_cycle;Max_cycle;Signal;HPM_P1;HPM_P2
2023/09/22 00:00:37;;;;;;;12.63;6.50;;;13.40;99.90;;;;;;5153913;27;20046;-27
2023/09/22 00:03:05;;;;;;;11.90;6.38;;;12.40;99.90;;;;;;5154011;27;20043;-27
2023/09/22 00:05:30;;;;;;;20.25;6.05;;;12.40;99.90;;;;;;5155150;27;20051;-27
2023/09/22 00:07:56;;;;;;;10.90;5.80;;;12.30;99.90;;;;;;5155754;27;20452;-27
2023/09/22 00:10:22;;;;;;;10.75;6.38;;;12.80;99.90;;;;;;5153700;27;20074;-27
2023/09/22 00:12:48;;;;;;;14.50;7.38;;;12.50;99.90;;;;;;5155065;27;20042;-27
2023/09/22 00:15:14;;;;;;;13.35;7.07;;;12.40;99.90;;;;;;5155098;27;20046;-27
2023/09/22 00:17:39;;;;;;;15.70;7.78;;;12.60;99.90;;;;;;5155052;27;20042;-27
2023/09/22 00:20:08;;;;;;;14.70;7.28;;;13.40;99.90;;;;;;5154968;27;20038;-27
2023/09/22 00:22:34;;;;;;;12.30;6.47;;;12.40;99.90;;;;;;5155036;27;20043;-27
2023/09/22 00:25:00;;;;;;;12.02;6.50;;;13.30;99.90;;;;;;5157046;27;20054;-27
2023/09/22 00:27:26;;;;;;;12.02;7.00;;;13.40;99.90;;;;;;5159051;27;20055;-27
2023/09/22 00:29:52;;;;;;;10.18;6.55;;;12.50;99.90;;;;;;5158919;27;20046;-27
2023/09/22 00:32:18;;;;;;;13.15;6.68;;;12.80;99.90;;;;;;5158864;27;20042;-27
2023/09/22 00:34:43;;;;;;;15.77;7.00;;;12.50;99.90;;;;;;5159609;27;20042;-27
2023/09/22 00:37:09;;;;;;;13.80;7.07;;;13.50;99.90;;;;;;5158746;27;20391;-27
2023/09/22 00:39:36;;;;;;;11.10;6.30;;;12.60;99.90;;;;;;5157632;27;20043;-27
2023/09/22 00:42:05;;;;;;;10.00;6.55;;;12.80;99.90;;;;;;5159296;27;20046;-27
2023/09/22 00:44:31;;;;;;;9.50;6.47;;;12.50;99.90;;;;;;5157377;27;20574;-27
2023/09/22 00:46:58;;;;;;;11.68;6.35;;;13.10;99.90;;;;;;5158302;27;20116;-26
2023/09/22 00:49:24;;;;;;;10.77;6.32;;;12.90;99.90;;;;;;5158528;27;20045;-27
2023/09/22 00:51:50;;;;;;;15.02;7.57;;;13.40;99.90;;;;;;5158376;27;20042;-26
2023/09/22 00:54:16;;;;;;;14.38;8.18;;;13.50;99.90;;;;;;5157248;27;20089;-27
2023/09/22 00:56:44;;;;;;;13.88;7.25;;;13.50;99.90;;;;;;5158666;27;20047;-26
2023/09/22 00:59:10;;;;;;;11.80;6.95;;;13.30;99.90;;;;;;5157275;27;20484;-27
2023/09/22 01:01:36;;;;;;;14.98;7.55;;;13.40;99.90;;;;;;5158867;27;20120;-27
2023/09/22 01:04:03;;;;;;;15.55;8.57;;;13.60;99.90;;;;;;5158493;27;20082;-27
2023/09/22 01:06:29;;;;;;;23.20;10.35;;;13.30;99.90;;;;;;5158280;27;20082;-27
2023/09/22 01:08:56;;;;;;;24.15;11.75;;;13.60;99.90;;;;;;5140868;27;20057;-28
2023/09/22 01:11:22;;;;;;;25.83;12.40;;;13.40;99.90;;;;;;5139403;27;20054;-27
2023/09/22 01:13:48;;;;;;;26.67;12.15;;;12.70;99.90;;;;;;5158373;27;20047;-27
2023/09/22 01:16:14;;;;;;;31.05;13.43;;;13.50;99.90;;;;;;5156902;27;20067;-27
2023/09/22 01:18:39;;;;;;;28.70;12.52;;;12.50;99.90;;;;;;5157913;27;20417;-26
2023/09/22 01:21:05;;;;;;;33.47;14.00;;;12.50;99.90;;;;;;5157910;27;20100;-27
2023/09/22 01:23:31;;;;;;;41.03;16.40;;;13.00;99.90;;;;;;5157904;27;20049;-27
2023/09/22 01:25:57;;;;;;;43.05;16.70;;;13.30;99.90;;;;;;5157856;27;20042;-27
2023/09/22 01:28:23;;;;;;;42.08;17.13;;;12.50;99.90;;;;;;5157194;27;20454;-27
2023/09/22 01:30:49;;;;;;;46.97;18.38;;;12.30;99.90;;;;;;5157849;27;20043;-27
2023/09/22 01:33:14;;;;;;;50.80;18.13;;;12.30;99.90;;;;;;5157760;27;20096;-27
2023/09/22 01:35:40;;;;;;;47.45;19.20;;;13.10;99.90;;;;;;5157447;27;20483;-27
2023/09/22 01:38:14;;;;;;;48.53;19.20;;;13.20;99.90;;;;;;5157699;27;20043;-27
2023/09/22 01:40:43;;;;;;;56.28;20.73;;;13.10;99.90;;;;;;5155983;27;20373;-27
2023/09/22 01:43:09;;;;;;;56.70;21.05;;;12.60;99.90;;;;;;5157516;27;20050;-27
2023/09/22 01:45:35;;;;;;;59.63;21.33;;;13.20;99.90;;;;;;5157729;27;20492;-27
2023/09/22 01:48:01;;;;;;;56.53;21.10;;;13.60;99.90;;;;;;5157384;27;20042;-27
2023/09/22 01:50:27;;;;;;;62.13;21.50;;;13.60;99.90;;;;;;5157284;27;20541;-27
2023/09/22 01:52:53;;;;;;;54.28;20.92;;;12.60;99.90;;;;;;5157337;27;20046;-26
2023/09/22 01:55:20;;;;;;;48.90;20.33;;;12.50;99.90;;;;;;5157923;27;20054;-26
2023/09/22 01:57:50;;;;;;;55.53;22.27;;;12.40;99.90;;;;;;5156107;27;20480;-27
2023/09/22 02:00:16;;;;;;;56.90;22.95;;;13.60;99.90;;;;;;5155966;27;20052;-27
2023/09/22 02:02:43;;;;;;;53.03;22.60;;;12.40;99.90;;;;;;5156489;27;20050;-27
2023/09/22 02:05:14;;;;;;;62.80;24.65;;;13.60;99.90;;;;;;5157154;27;20125;-27
2023/09/22 02:07:40;;;;;;;59.45;23.67;;;13.10;99.90;;;;;;5157004;27;20047;-27
2023/09/22 02:10:09;;;;;;;64.35;24.38;;;13.60;99.90;;;;;;5156946;27;20043;-27
2023/09/22 02:12:39;;;;;;;65.50;26.35;;;12.60;99.90;;;;;;5156931;27;20050;-27
2023/09/22 02:15:09;;;;;;;69.32;27.75;;;12.70;99.90;;;;;;5121878;27;20062;-27
2023/09/22 02:17:38;;;;;;;61.90;27.25;;;13.40;99.90;;;;;;5157736;27;20356;-27
2023/09/22 02:20:22;;;;;;;67.55;28.35;;;13.00;99.90;;;;;;5157266;27;20045;-27
2023/09/22 02:22:54;;;;;;;73.32;30.15;;;13.30;99.90;;;;;;5157644;27;20129;-27
2023/09/22 02:25:20;;;;;;;66.97;29.77;;;13.50;99.90;;;;;;5156712;27;20523;-28
2023/09/22 02:27:50;;;;;;;75.55;31.35;;;12.60;99.90;;;;;;5138923;27;20047;-27
2023/09/22 02:30:16;;;;;;;73.25;30.75;;;13.50;99.90;;;;;;5155611;27;20050;-27
2023/09/22 02:32:48;;;;;;;68.43;30.13;;;13.30;99.90;;;;;;5155814;27;20046;-27
2023/09/22 02:35:18;;;;;;;65.75;30.17;;;13.00;99.90;;;;;;5156483;27;20043;-27
2023/09/22 02:37:44;;;;;;;64.13;28.92;;;12.60;99.90;;;;;;5155456;27;20082;-27
2023/09/22 02:40:12;;;;;;;63.35;30.55;;;13.70;99.90;;;;;;5155987;27;20504;-27
2023/09/22 02:42:38;;;;;;;64.40;30.77;;;13.70;99.90;;;;;;5156918;27;20055;-27
2023/09/22 02:45:06;;;;;;;59.55;28.85;;;12.70;99.90;;;;;;5156911;27;20176;-27
2023/09/22 02:47:31;;;;;;;63.55;31.00;;;13.70;99.90;;;;;;5155470;27;20086;-27
2023/09/22 02:49:57;;;;;;;60.58;29.88;;;13.90;99.90;;;;;;5155864;27;20179;-27
2023/09/22 02:52:23;;;;;;;60.70;29.10;;;13.60;99.90;;;;;;5154986;27;20038;-27
2023/09/22 02:54:54;;;;;;;59.22;28.27;;;13.80;99.90;;;;;;5156629;27;20464;-28
2023/09/22 02:57:19;;;;;;;61.35;28.30;;;13.80;99.90;;;;;;5154846;27;20401;-27
2023/09/22 02:59:45;;;;;;;52.83;25.67;;;12.60;99.90;;;;;;5155940;27;20035;-27
2023/09/22 03:02:11;;;;;;;50.75;25.48;;;12.70;99.90;;;;;;5155845;27;20046;-27
2023/09/22 03:04:37;;;;;;;50.30;24.73;;;12.60;99.90;;;;;;5154764;27;20107;-26
2023/09/22 03:07:03;;;;;;;43.88;23.27;;;12.60;99.90;;;;;;5155563;27;20042;-26
2023/09/22 03:09:29;;;;;;;45.70;22.75;;;12.50;99.90;;;;;;5156440;27;20042;-26
2023/09/22 03:11:55;;;;;;;39.45;22.05;;;12.40;99.90;;;;;;5154881;27;20121;-27
2023/09/22 03:14:21;;;;;;;38.22;20.40;;;13.10;99.90;;;;;;5137052;27;20137;-27
2023/09/22 03:16:47;;;;;;;42.35;21.10;;;12.40;99.90;;;;;;5137350;27;20153;-27
2023/09/22 03:19:12;;;;;;;40.97;20.90;;;13.20;99.90;;;;;;5155211;27;20047;-28
2023/09/22 03:21:38;;;;;;;41.25;20.30;;;12.50;99.90;;;;;;5155618;27;20089;-27
2023/09/22 03:24:04;;;;;;;40.88;20.90;;;12.70;99.90;;;;;;5155417;27;20047;-26
2023/09/22 03:26:30;;;;;;;42.47;21.45;;;13.10;99.90;;;;;;5155879;27;20551;-28
2023/09/22 03:28:56;;;;;;;36.80;18.05;;;12.60;99.90;;;;;;5154321;27;20039;-27
2023/09/22 03:31:23;;;;;;;45.25;19.38;;;12.80;99.90;;;;;;5155510;27;20130;-27
2023/09/22 03:33:49;;;;;;;33.28;17.23;;;12.20;99.90;;;;;;5154304;27;20507;-27
2023/09/22 03:36:15;;;;;;;35.50;16.83;;;12.80;99.90;;;;;;5155509;27;20043;-27
2023/09/22 03:38:42;;;;;;;33.85;16.85;;;13.40;99.90;;;;;;5155428;27;20050;-27
2023/09/22 03:41:08;;;;;;;34.10;16.58;;;12.70;99.90;;;;;;5155409;27;20046;-27
2023/09/22 03:43:34;;;;;;;36.80;16.58;;;12.70;99.90;;;;;;5154249;27;20110;-27
2023/09/22 03:46:00;;;;;;;31.88;15.65;;;13.50;99.90;;;;;;5154411;27;20039;-28
2023/09/22 03:48:26;;;;;;;33.92;15.32;;;12.80;99.90;;;;;;5155353;27;20400;-27
2023/09/22 03:50:53;;;;;;;29.27;14.60;;;12.80;99.90;;;;;;5155187;27;20134;-27
2023/09/22 03:53:19;;;;;;;35.92;16.42;;;13.70;99.90;;;;;;5155826;27;20126;-27
2023/09/22 03:55:45;;;;;;;28.05;14.60;;;13.70;99.90;;;;;;5137641;27;20154;-27
2023/09/22 03:58:11;;;;;;;31.45;14.75;;;13.60;99.90;;;;;;5155957;27;20049;-27
2023/09/22 04:00:37;;;;;;;26.70;13.13;;;13.70;99.90;;;;;;5159417;27;20125;-27
2023/09/22 04:03:09;;;;;;;28.33;14.32;;;12.80;99.90;;;;;;5159463;27;20039;-27
2023/09/22 04:05:36;;;;;;;31.95;15.10;;;13.00;99.90;;;;;;5159481;27;20473;-27
2023/09/22 04:08:02;;;;;;;35.33;15.77;;;12.50;99.90;;;;;;5159354;27;20047;-27
2023/09/22 04:10:27;;;;;;;34.45;16.02;;;13.20;99.90;;;;;;5160182;27;20045;-27
2023/09/22 04:12:53;;;;;;;34.30;17.00;;;13.20;99.90;;;;;;5159284;27;20391;-27
2023/09/22 04:15:19;;;;;;;34.65;15.60;;;13.20;99.90;;;;;;5159110;27;20070;-27
2023/09/22 04:17:47;;;;;;;35.47;15.90;;;12.20;99.90;;;;;;5123847;27;20137;-27
2023/09/22 04:20:16;;;;;;;32.35;16.10;;;12.30;99.90;;;;;;5159919;27;20045;-27
2023/09/22 04:22:43;;;;;;;31.95;15.63;;;12.30;99.90;;;;;;5159612;27;20043;-28
2023/09/22 04:25:11;;;;;;;36.80;16.55;;;12.80;99.90;;;;;;5159314;27;20047;-27
2023/09/22 04:27:46;;;;;;;37.97;17.55;;;12.10;99.90;;;;;;5142043;27;20042;-27
2023/09/22 04:30:18;;;;;;;40.30;17.35;;;12.40;99.90;;;;;;5158974;27;20050;-27
2023/09/22 04:32:46;;;;;;;37.35;17.30;;;12.40;99.90;;;;;;5158950;27;20125;-28
2023/09/22 04:35:12;;;;;;;45.03;18.38;;;12.20;99.90;;;;;;5158846;27;20130;-27
2023/09/22 04:37:38;;;;;;;50.55;21.15;;;12.50;99.90;;;;;;5158816;27;20488;-27
2023/09/22 04:40:10;;;;;;;41.08;18.33;;;12.00;99.90;;;;;;5157855;27;20035;-27
2023/09/22 04:42:36;;;;;;;42.30;18.65;;;12.10;99.90;;;;;;5158530;27;20450;-27
2023/09/22 04:45:03;;;;;;;40.08;18.70;;;13.20;99.90;;;;;;5157070;27;20042;-27
2023/09/22 04:47:29;;;;;;;53.53;21.27;;;12.60;99.90;;;;;;5157448;27;20102;-27
2023/09/22 04:49:54;;;;;;;51.63;22.05;;;13.10;99.90;;;;;;5158538;27;20038;-27
2023/09/22 04:52:20;;;;;;;43.75;19.42;;;12.30;99.90;;;;;;5158363;27;20049;-28
2023/09/22 04:54:46;;;;;;;48.33;21.42;;;12.50;99.90;;;;;;5158470;27;20039;-27
2023/09/22 04:57:12;;;;;;;56.40;23.08;;;12.90;99.90;;;;;;5158446;27;20043;-27
2023/09/22 04:59:37;;;;;;;49.47;21.20;;;13.50;99.90;;;;;;5157306;27;20049;-27
2023/09/22 05:02:05;;;;;;;50.28;22.45;;;12.60;99.90;;;;;;5157170;27;20039;-27
2023/09/22 05:04:31;;;;;;;56.35;23.60;;;13.30;99.90;;;;;;5157339;27;20552;-27
2023/09/22 05:06:57;;;;;;;50.20;24.20;;;13.10;99.90;;;;;;5158851;27;20110;-27
2023/09/22 05:09:23;;;;;;;47.20;23.73;;;13.50;99.90;;;;;;5156896;27;20058;-27
2023/09/22 05:11:49;;;;;;;54.60;26.17;;;13.30;99.90;;;;;;5157520;27;20046;-27
2023/09/22 05:14:14;;;;;;;52.20;25.35;;;12.50;99.90;;;;;;5157776;27;20043;-27
2023/09/22 05:16:42;;;;;;;52.28;27.45;;;13.50;99.90;;;;;;5158174;27;20058;-27
2023/09/22 05:19:07;;;;;;;49.67;25.67;;;13.30;99.90;;;;;;5158022;27;20043;-28
2023/09/22 05:21:33;;;;;;;53.47;28.15;;;13.20;99.90;;;;;;5122398;27;20484;-27
2023/09/22 05:23:59;;;;;;;44.33;24.52;;;12.40;99.90;;;;;;5157913;27;20445;-28
2023/09/22 05:26:25;;;;;;;48.50;27.58;;;13.30;99.90;;;;;;5158397;27;20043;-28
2023/09/22 05:28:51;;;;;;;50.97;27.88;;;12.60;99.90;;;;;;5139470;27;20043;-27
2023/09/22 05:31:18;;;;;;;51.80;27.08;;;12.50;99.90;;;;;;5157858;27;20042;-28
2023/09/22 05:33:44;;;;;;;50.75;27.40;;;13.00;99.90;;;;;;5157412;27;20054;-28
2023/09/22 05:36:11;;;;;;;50.40;26.55;;;13.20;99.90;;;;;;5157683;27;20042;-28
2023/09/22 05:38:37;;;;;;;42.95;24.83;;;12.40;99.90;;;;;;5157639;27;20050;-28
2023/09/22 05:41:04;;;;;;;40.80;21.80;;;12.50;99.90;;;;;;5157506;27;20039;-28
2023/09/22 05:43:31;;;;;;;49.17;25.50;;;12.50;99.90;;;;;;5157503;27;20053;-29
2023/09/22 05:45:56;;;;;;;42.30;22.60;;;12.80;99.90;;;;;;5157783;27;20099;-28
2023/09/22 05:48:23;;;;;;;38.13;22.48;;;12.60;99.90;;;;;;5157442;27;20437;-28
2023/09/22 05:50:59;;;;;;;43.78;23.40;;;12.40;99.90;;;;;;5157263;27;20122;-28
2023/09/22 05:53:26;;;;;;;46.45;24.05;;;12.90;99.90;;;;;;5158161;27;20047;-28
2023/09/22 05:56:10;;;;;;;36.78;22.15;;;12.50;99.90;;;;;;5157293;27;20521;-29
2023/09/22 05:58:42;;;;;;;40.22;22.20;;;12.80;99.90;;;;;;5158140;27;20043;-28
2023/09/22 06:01:09;;;;;;;41.35;22.25;;;12.80;99.90;;;;;;5158066;27;20050;-28
2023/09/22 06:03:39;;;;;;;42.67;23.13;;;12.40;99.90;;;;;;5156449;27;20082;-28
2023/09/22 06:06:12;;;;;;;47.45;24.92;;;12.40;99.90;;;;;;5157105;27;20051;-28
2023/09/22 06:08:40;;;;;;;48.50;24.80;;;12.80;99.90;;;;;;5157857;27;20501;-29
2023/09/22 06:11:06;;;;;;;47.03;25.10;;;12.60;99.90;;;;;;5156988;27;20499;-29
2023/09/22 06:13:34;;;;;;;41.78;23.73;;;12.70;99.90;;;;;;5156922;27;20122;-28
2023/09/22 06:16:01;;;;;;;49.53;26.25;;;12.50;99.90;;;;;;5157009;27;20104;-28
2023/09/22 06:18:27;;;;;;;53.63;27.17;;;12.80;99.90;;;;;;5156516;27;20396;-29
2023/09/22 06:20:57;;;;;;;49.70;25.70;;;12.80;99.90;;;;;;5156693;27;20035;-28
2023/09/22 06:23:26;;;;;;;53.92;27.38;;;12.60;99.90;;;;;;5137662;27;20068;-29
2023/09/22 06:25:54;;;;;;;50.05;26.92;;;12.60;99.90;;;;;;5156629;27;20046;-29
2023/09/22 06:28:20;;;;;;;51.20;25.58;;;12.70;99.90;;;;;;5156929;27;20115;-30
2023/09/22 06:30:50;;;;;;;47.90;25.35;;;12.60;99.90;;;;;;5155578;27;20551;-29
2023/09/22 06:33:16;;;;;;;50.70;26.70;;;12.60;99.90;;;;;;5156876;27;20058;-29
2023/09/22 06:35:46;;;;;;;55.33;29.33;;;12.60;99.90;;;;;;5156802;27;20053;-28
2023/09/22 06:38:13;;;;;;;49.05;26.88;;;12.60;99.90;;;;;;5137919;27;20077;-28
2023/09/22 06:40:39;;;;;;;53.65;27.27;;;12.60;99.90;;;;;;5155125;27;20434;-30
2023/09/22 06:43:05;;;;;;;45.33;24.70;;;12.50;99.90;;;;;;5138123;27;20084;-29
2023/09/22 06:45:34;;;;;;;50.03;25.35;;;12.60;99.90;;;;;;5156326;27;20130;-29
2023/09/22 06:48:00;;;;;;;49.30;25.27;;;12.60;99.90;;;;;;5156212;27;20038;-29
2023/09/22 06:50:27;;;;;;;55.72;25.58;;;12.40;99.90;;;;;;5156039;27;20038;-29
2023/09/22 06:52:53;;;;;;;51.65;25.58;;;12.60;99.90;;;;;;5156120;27;20093;-28
2023/09/22 06:55:19;;;;;;;49.47;26.65;;;12.40;99.90;;;;;;5138762;27;20058;-29
2023/09/22 06:57:45;;;;;;;51.65;26.15;;;12.50;99.90;;;;;;5156887;27;20047;-29
2023/09/22 07:00:23;;;;;;;52.60;25.70;;;12.60;99.90;;;;;;5155948;27;20585;-29
2023/09/22 07:02:49;;;;;;;50.22;24.92;;;12.60;99.90;;;;;;5155044;27;20395;-30
2023/09/22 07:05:15;;;;;;;48.38;24.80;;;12.70;99.90;;;;;;5138303;27;20089;-30
2023/09/22 07:07:41;;;;;;;50.88;25.27;;;13.00;99.90;;;;;;5155937;27;20042;-29
2023/09/22 07:10:11;;;;;;;47.40;25.48;;;13.10;99.90;;;;;;5154924;27;20061;-30
2023/09/22 07:12:38;;;;;;;37.50;21.15;;;12.90;99.90;;;;;;5155802;27;20369;-30
2023/09/22 07:15:06;;;;;;;45.72;25.00;;;12.90;99.90;;;;;;5154481;27;20062;-30
2023/09/22 07:17:31;;;;;;;44.70;25.60;;;13.20;99.90;;;;;;5154733;27;20484;-30
2023/09/22 07:20:01;;;;;;;41.03;24.08;;;13.20;99.90;;;;;;5155654;27;20035;-30
2023/09/22 07:22:31;;;;;;;41.53;22.45;;;13.00;99.90;;;;;;5155300;27;20042;-30
2023/09/22 07:24:57;;;;;;;38.20;22.00;;;13.10;99.90;;;;;;5138282;27;20043;-30
2023/09/22 07:27:23;;;;;;;37.33;20.92;;;13.20;99.90;;;;;;5137401;27;20049;-30
2023/09/22 07:29:50;;;;;;;41.78;23.65;;;13.10;99.90;;;;;;5154458;27;20046;-30
2023/09/22 07:32:17;;;;;;;37.28;20.58;;;13.00;99.90;;;;;;5103178;27;20045;-31
2023/09/22 07:34:43;;;;;;;34.80;20.17;;;13.00;99.90;;;;;;5154286;27;20051;-31
2023/09/22 07:37:11;;;;;;;33.58;18.02;;;13.00;99.90;;;;;;5155487;27;20399;-32
2023/09/22 07:39:40;;;;;;;37.90;20.13;;;13.10;99.90;;;;;;5155376;27;20038;-30
2023/09/22 07:42:09;;;;;;;33.47;19.42;;;13.00;99.90;;;;;;5155198;27;20488;-31
2023/09/22 07:44:38;;;;;;;28.70;17.55;;;13.00;99.90;;;;;;5155384;27;20050;-31
2023/09/22 07:47:10;;;;;;;30.58;17.92;;;13.00;99.90;;;;;;5155360;27;20365;-31
2023/09/22 07:49:40;;;;;;;28.63;18.65;;;13.20;99.90;;;;;;5155443;27;20096;-31
2023/09/22 07:52:10;;;;;;;30.52;17.58;;;13.20;99.90;;;;;;5156142;27;20053;-31
2023/09/22 07:54:39;;;;;;;25.00;15.77;;;13.30;99.90;;;;;;5155333;27;20053;-32
2023/09/22 07:57:05;;;;;;;23.88;14.63;;;13.30;99.90;;;;;;5155309;27;20082;-33
2023/09/22 07:59:31;;;;;;;23.30;15.40;;;13.20;99.90;;;;;;5155187;27;20125;-31
2023/09/22 08:02:02;;;;;;;21.00;13.98;;;13.20;99.90;;;;;;5155293;27;20043;-31
2023/09/22 08:04:27;;;;;;;19.88;13.13;;;13.30;99.90;;;;;;5155293;27;20043;-32
2023/09/22 08:06:53;;;;;;;20.92;13.70;;;13.20;99.90;;;;;;5155204;27;20106;-32
2023/09/22 08:09:20;;;;;;;22.92;13.68;;;13.10;99.90;;;;;;5153569;27;20039;-33
2023/09/22 08:11:46;;;;;;;24.27;14.05;;;13.20;99.90;;;;;;5136808;27;20049;-32
2023/09/22 08:14:12;;;;;;;21.85;12.73;;;13.10;99.90;;;;;;5155039;27;20094;-32
2023/09/22 08:16:39;;;;;;;22.83;13.77;;;13.10;99.90;;;;;;5154842;27;20289;-33
2023/09/22 08:19:10;;;;;;;20.35;14.02;;;13.20;99.90;;;;;;5154996;27;20046;-32
2023/09/22 08:21:38;;;;;;;19.85;12.73;;;13.20;99.90;;;;;;5155953;27;20046;-33
2023/09/22 08:24:04;;;;;;;20.80;13.93;;;13.20;99.90;;;;;;5153857;27;20503;-32
2023/09/22 08:26:31;;;;;;;23.08;14.13;;;13.30;99.90;;;;;;5154995;27;20512;-33
2023/09/22 08:28:57;;;;;;;23.83;14.60;;;13.30;99.90;;;;;;5154681;27;20440;-32
2023/09/22 08:31:25;;;;;;;23.13;15.30;;;13.50;99.90;;;;;;5154945;27;20038;-32
2023/09/22 08:33:51;;;;;;;22.38;13.68;;;13.50;99.90;;;;;;5153779;27;20125;-33
2023/09/22 08:36:17;;;;;;;19.73;12.07;;;13.60;99.90;;;;;;5136288;27;20134;-33
2023/09/22 08:38:43;;;;;;;20.60;12.60;;;13.60;99.90;;;;;;5154660;27;20107;-33
2023/09/22 08:41:09;;;;;;;20.13;13.45;;;13.60;99.90;;;;;;5154750;27;20054;-33
2023/09/22 08:43:35;;;;;;;18.48;12.25;;;13.60;99.90;;;;;;5154942;27;20043;-34
2023/09/22 08:46:01;;;;;;;17.80;12.77;;;13.60;99.90;;;;;;5157078;27;20039;-34
2023/09/22 08:48:28;;;;;;;16.27;11.98;;;13.60;99.90;;;;;;5158002;27;20054;-35
2023/09/22 08:50:57;;;;;;;22.67;14.10;;;13.60;99.90;;;;;;5156939;27;20134;-34
2023/09/22 08:53:23;;;;;;;18.05;11.70;;;13.60;99.90;;;;;;5158481;27;20058;-35
2023/09/22 08:55:52;;;;;;;17.63;11.85;;;13.70;99.90;;;;;;5158677;27;20042;-34
2023/09/22 08:58:18;;;;;;;15.35;12.13;;;13.80;99.90;;;;;;5157594;27;20112;-34
2023/09/22 09:00:51;;;;;;;19.05;12.55;;;13.80;99.90;;;;;;5158333;27;20042;-34
2023/09/22 09:03:18;;;;;;;;;;;13.90;99.90;;;;;;5158820;27;20053;-38
2023/09/22 09:05:44;;;;;;;17.88;13.05;;;14.00;99.90;;;;;;5157632;27;20379;-38
2023/09/22 09:08:15;;;;;;;18.85;13.57;;;14.00;99.90;;;;;;5157053;27;20046;-38
2023/09/22 09:10:43;;;;;;;16.02;12.07;;;14.20;99.90;;;;;;5158252;27;20047;-38
2023/09/22 09:13:17;;;;;;;15.43;10.35;;;14.30;99.90;;;;;;5158171;27;20043;-40
2023/09/22 09:15:45;;;;;;;12.25;9.85;;;14.30;99.90;;;;;;5157016;27;20070;-40
2023/09/22 09:18:13;;;;;;;10.75;8.63;;;14.20;99.90;;;;;;5156768;27;20423;-41
2023/09/22 09:20:40;;;;;;;12.38;8.65;;;14.30;99.90;;;;;;5158824;27;20038;-41
2023/09/22 09:23:13;;;;;;;10.85;9.45;;;14.50;99.90;;;;;;5158022;27;20117;-41
2023/09/22 09:25:48;;;;;;;10.48;7.75;;;14.50;99.90;;;;;;5156445;27;20404;-41
2023/09/22 09:28:15;;;;;;;8.02;7.22;;;14.50;99.90;;;;;;5157909;27;20047;-42
2023/09/22 09:30:57;;;;;;;9.82;7.38;;;14.70;99.90;;;;;;5157398;27;20402;-42
2023/09/22 09:33:31;;;;;;;8.60;6.22;;;14.80;99.90;;;;;;5157796;27;20043;-43
2023/09/22 09:35:58;;;;;;;7.65;6.55;;;14.90;99.90;;;;;;5158002;27;20046;-43
2023/09/22 09:38:26;;;;;;;7.95;5.35;;;15.10;99.90;;;;;;5157737;27;20054;-43
2023/09/22 09:40:53;;;;;;;11.27;5.70;;;15.90;99.90;;;;;;5156407;27;20042;-43
2023/09/22 09:43:19;;;;;;;7.13;4.97;;;16.80;99.90;;;;;;5156588;27;20047;-44
2023/09/22 09:45:47;;;;;;;6.60;5.10;;;17.00;99.90;;;;;;5158133;27;20046;-43
2023/09/22 09:48:16;;;;;;;7.32;3.83;;;16.90;99.90;;;;;;5156515;27;20043;-44
2023/09/22 09:50:47;;;;;;;5.80;3.85;;;16.30;99.90;;;;;;5156184;27;20121;-45
2023/09/22 09:53:49;;;;;;;4.65;3.47;;;15.90;99.90;;;;;;5139506;27;20089;-45
2023/09/22 09:56:17;;;;;;;5.35;3.30;;;15.50;99.90;;;;;;5156850;27;20042;-45
2023/09/22 09:58:45;;;;;;;4.07;2.78;;;15.20;99.90;;;;;;5139044;27;20042;-46
2023/09/22 10:01:12;;;;;;;5.78;2.35;;;15.40;99.90;;;;;;5157215;27;20038;-46
2023/09/22 10:03:42;;;;;;;5.45;2.50;;;15.50;99.90;;;;;;5157205;27;20049;-47
2023/09/22 10:06:13;;;;;;;2.60;1.40;;;15.70;99.90;;;;;;5157463;27;20536;-38
2023/09/22 10:08:39;;;;;;;2.63;1.23;;;15.70;1.00;;;;;;5156165;27;20492;-41
2023/09/22 10:11:13;;;;;;;2.95;1.25;;;15.70;1.00;;;;;;5138875;27;20038;-41
2023/09/22 10:13:39;;;;;;;2.60;1.13;;;15.60;99.90;;;;;;5156999;27;20078;-45
2023/09/22 10:16:06;;;;;;;2.20;1.13;;;15.40;1.00;;;;;;5157004;27;20488;-43
2023/09/22 10:18:59;;;;;;;3.05;1.17;;;15.30;1.00;;;;;;5157455;27;20096;-42
2023/09/22 10:21:48;;;;;;;2.10;0.93;;;15.20;99.90;;;;;;5156216;27;20125;-44
2023/09/22 10:24:17;;;;;;;1.85;0.73;;;15.40;99.90;;;;;;5156179;27;20077;-44
2023/09/22 10:27:00;;;;;;;3.45;1.10;;;15.90;1.00;;;;;;5156611;27;20054;-46
2023/09/22 10:32:17;;;;;;;3.78;0.95;;;17.20;99.90;;;;;;5157489;27;20043;-49
2023/09/22 10:34:54;;;;;;;2.80;1.00;;;17.70;1.00;;;;;;5156893;27;20082;-50
2023/09/22 10:37:32;;;;;;;2.78;1.08;;;18.30;1.00;;;;;;5155541;27;20467;-51
2023/09/22 10:40:15;;;;;;;2.65;1.00;;;18.40;1.00;;;;;;5156799;27;20099;-56
2023/09/22 10:42:41;;;;;;;4.00;0.93;;;18.10;99.90;;;;;;5155745;27;20092;-48
2023/09/22 10:45:08;;;;;;;1.52;0.77;;;17.70;1.00;;;;;;5156349;27;20535;-45
2023/09/22 10:47:39;;;;;;;2.30;0.90;;;16.80;1.00;;;;;;5155638;27;20043;-49
2023/09/22 10:50:15;;;;;;;1.40;0.50;;;16.90;1.00;;;;;;5156002;27;20043;-42
2023/09/22 10:52:50;;;;;;;1.17;0.68;;;17.40;99.90;;;;;;5156977;27;20047;-46
2023/09/22 10:55:38;;;;;;;2.55;0.70;;;17.70;1.00;;;;;;5154970;27;20046;-42
2023/09/22 10:58:06;;;;;;;3.13;1.00;;;18.00;99.90;;;;;;5156114;27;20039;-42
2023/09/22 11:00:41;;;;;;;1.98;0.65;;;18.00;99.90;;;;;;5154874;27;20177;-41
2023/09/22 11:03:13;;;;;;;1.33;0.68;;;18.30;99.90;;;;;;5156074;27;20047;-43
2023/09/22 11:05:40;;;;;;;1.10;0.50;;;18.00;1.00;;;;;;5156044;27;20051;-39
2023/09/22 11:08:18;;;;;;;2.33;0.65;;;17.60;1.00;;;;;;5155293;27;20111;-38
2023/09/22 11:10:49;;;;;;;0.80;0.30;;;17.10;1.00;;;;;;5155951;27;20065;-37
2023/09/22 11:13:15;;;;;;;2.03;0.70;;;16.80;1.00;;;;;;5155587;27;20046;-38
2023/09/22 11:15:53;;;;;;;0.55;0.43;;;17.20;98.70;;;;;;5154270;27;20510;-36
2023/09/22 11:18:27;;;;;;;1.20;0.60;;;17.40;99.90;;;;;;5137498;27;20463;-36
2023/09/22 11:21:05;;;;;;;1.77;0.90;;;17.20;99.90;;;;;;5155974;27;20049;-35
2023/09/22 11:23:32;;;;;;;2.28;0.80;;;17.50;99.90;;;;;;5156350;27;20479;-36
2023/09/22 11:26:01;;;;;;;1.20;0.65;;;18.20;65.00;;;;;;5154979;27;20042;-36
2023/09/22 11:28:31;;;;;;;2.42;0.88;;;18.80;99.90;;;;;;5154973;27;20050;-34
2023/09/22 11:31:25;;;;;;;1.80;0.90;;;18.30;99.90;;;;;;5156068;27;20389;-33
2023/09/22 11:34:03;;;;;;;1.13;0.50;;;18.00;99.90;;;;;;5153755;27;20070;-33
2023/09/22 11:36:48;;;;;;;0.93;0.50;;;18.40;1.00;;;;;;5156132;27;20046;-34
2023/09/22 11:39:43;;;;;;;1.17;0.77;;;18.60;1.00;;;;;;5154500;27;20049;-34
2023/09/22 11:42:09;;;;;;;1.83;0.80;;;18.00;1.00;;;;;;5137449;27;20057;-33
2023/09/22 11:44:35;;;;;;;2.85;1.10;;;17.80;1.00;;;;;;5154444;27;20046;-34
2023/09/22 11:47:02;;;;;;;1.80;0.77;;;17.90;99.90;;;;;;5155373;27;20480;-32
2023/09/22 11:49:36;;;;;;;1.20;0.60;;;17.80;99.90;;;;;;5155395;27;20050;-39
2023/09/22 11:52:03;;;;;;;1.77;0.60;;;17.60;1.00;;;;;;5154573;27;20484;-40
2023/09/22 11:54:30;;;;;;;1.55;0.60;;;17.80;99.90;;;;;;5154087;27;20113;-41
2023/09/22 11:56:58;;;;;;;1.33;0.80;;;18.40;10.40;;;;;;5155920;27;20082;-39
2023/09/22 11:59:39;;;;;;;0.65;0.35;;;18.40;20.40;;;;;;5154079;27;20038;-38
2023/09/22 12:02:06;;;;;;;2.17;0.57;;;18.10;99.90;;;;;;5155333;27;20046;-39
2023/09/22 12:04:34;;;;;;;2.10;0.50;;;17.70;99.90;;;;;;5155210;27;20488;-36
2023/09/22 12:07:01;;;;;;;0.93;0.40;;;17.50;71.50;;;;;;5153949;27;20043;-38
2023/09/22 12:09:27;;;;;;;2.40;0.70;;;17.10;99.90;;;;;;5137099;27;20050;-37
2023/09/22 12:11:53;;;;;;;1.77;0.70;;;17.20;1.00;;;;;;5155694;27;20050;-34
2023/09/22 12:14:19;;;;;;;1.55;0.60;;;17.30;99.90;;;;;;5155105;27;20047;-34
2023/09/22 12:16:45;;;;;;;1.52;0.52;;;17.10;99.90;;;;;;5153524;27;20090;-34
2023/09/22 12:19:13;;;;;;;0.90;0.50;;;16.70;99.90;;;;;;5154029;27;20393;-33
2023/09/22 12:21:39;;;;;;;2.50;0.60;;;16.60;1.00;;;;;;5157059;27;20047;-33
2023/09/22 12:24:05;;;;;;;4.10;0.88;;;16.80;99.90;;;;;;5158366;27;20158;-33
2023/09/22 12:26:31;;;;;;;1.38;0.73;;;17.40;99.90;;;;;;5159131;27;20142;-33
2023/09/22 12:28:56;;;;;;;2.17;0.52;;;17.70;1.00;;;;;;5106546;27;20507;-33
2023/09/22 12:31:22;;;;;;;2.95;0.75;;;17.80;1.00;;;;;;5159013;27;20495;-34
2023/09/22 12:33:48;;;;;;;1.52;0.98;;;17.90;99.90;;;;;;5158204;27;20073;-33
2023/09/22 12:36:15;;;;;;;1.50;0.75;;;17.90;99.90;;;;;;5158966;27;20121;-33
2023/09/22 12:38:44;;;;;;;4.93;0.73;;;17.40;99.90;;;;;;5158878;27;20126;-32
2023/09/22 12:41:11;;;;;;;0.85;0.40;;;17.10;1.00;;;;;;5158735;27;20085;-33